createdAt,value
2022-12-03T00:02:04.177Z,101177.03
2022-12-03T00:05:07.160Z,101176.94
2022-12-03T00:08:10.150Z,101182.13
2022-12-03T00:11:14.559Z,101185.56
2022-12-03T00:14:17.339Z,101174.31
2022-12-03T00:17:20.124Z,101171.72
2022-12-03T00:20:26.240Z,101172.56
2022-12-03T00:23:28.891Z,101172.56
2022-12-03T00:26:31.641Z,101163.81
2022-12-03T00:29:34.606Z,101158.63
2022-12-03T00:32:37.403Z,101166.34
2022-12-03T00:35:40.151Z,101169.88
2022-12-03T00:38:49.115Z,101165.50
2022-12-03T00:41:52.009Z,101178.59
2022-12-03T00:44:55.273Z,101179.44
2022-12-03T00:47:58.217Z,101180.28
2022-12-03T00:51:01.014Z,101177.56
2022-12-03T00:54:03.869Z,101181.09
2022-12-03T00:57:06.846Z,101176.72
2022-12-03T01:00:11.567Z,101179.34
2022-12-03T01:03:17.574Z,101181.00
2022-12-03T01:06:20.453Z,101168.84
2022-12-03T01:09:26.314Z,101187.88
2022-12-03T01:12:29.131Z,101186.13
2022-12-03T01:15:31.891Z,101190.38
2022-12-03T01:18:34.607Z,101191.22
2022-12-03T01:21:38.104Z,101191.22
2022-12-03T01:24:40.773Z,101193.72
2022-12-03T01:27:46.568Z,101191.03
2022-12-03T01:31:08.001Z,101189.25
2022-12-03T01:34:10.855Z,101190.09
2022-12-03T01:37:13.921Z,101198.72
2022-12-03T01:40:20.473Z,101196.97
2022-12-03T01:43:24.585Z,101209.03
2022-12-03T01:46:34.001Z,101209.78
2022-12-03T01:49:43.548Z,101194.25
2022-12-03T01:52:46.544Z,101205.50
2022-12-03T01:55:49.310Z,101205.50
2022-12-03T01:58:52.113Z,101204.56
2022-12-03T02:01:54.939Z,101198.53
2022-12-03T02:04:58.251Z,101198.53
2022-12-03T02:08:01.560Z,101208.00
2022-12-03T02:11:21.073Z,101205.41
2022-12-03T02:14:23.921Z,101214.06
2022-12-03T02:17:27.695Z,101205.41
2022-12-03T02:20:32.318Z,101209.69
2022-12-03T02:23:56.079Z,101204.47
2022-12-03T02:26:58.873Z,101201.03
2022-12-03T02:30:01.797Z,101207.09
2022-12-03T02:33:06.128Z,101211.34
2022-12-03T02:36:09.720Z,101205.22
2022-12-03T02:39:12.375Z,101198.25
2022-12-03T02:42:33.648Z,101190.44
2022-12-03T02:45:42.169Z,101199.91
2022-12-03T02:48:47.925Z,101189.50
2022-12-03T02:51:50.731Z,101214.50
2022-12-03T02:54:54.013Z,101212.72
2022-12-03T02:57:59.963Z,101202.22
2022-12-03T03:01:05.902Z,101211.78
2022-12-03T03:04:09.148Z,101209.19
2022-12-03T03:07:11.994Z,101214.31
2022-12-03T03:10:19.124Z,101216.91
2022-12-03T03:13:22.196Z,101209.94
2022-12-03T03:16:28.037Z,101200.34
2022-12-03T03:19:31.366Z,101198.59
2022-12-03T03:22:39.731Z,101199.53
2022-12-03T03:25:45.296Z,101200.34
2022-12-03T03:28:50.226Z,101202.03
2022-12-03T03:31:53.248Z,101203.78
2022-12-03T03:34:56.572Z,101213.37
2022-12-03T03:37:59.917Z,101217.63
2022-12-03T03:41:04.306Z,101207.22
2022-12-03T03:44:10.679Z,101216.69
2022-12-03T03:47:13.622Z,101214.09
2022-12-03T03:50:16.959Z,101217.63
2022-12-03T03:53:20.283Z,101214.19
2022-12-03T03:56:24.183Z,101213.37
2022-12-03T03:59:27.012Z,101216.81
2022-12-03T04:02:29.921Z,101196.09
2022-12-03T04:05:32.736Z,101203.06
2022-12-03T04:08:36.100Z,101214.31
2022-12-03T04:11:57.253Z,101199.53
2022-12-03T04:15:00.108Z,101208.25
2022-12-03T04:18:21.485Z,101210.03
2022-12-03T04:21:43.357Z,101203.88
2022-12-03T04:24:46.073Z,101202.13
2022-12-03T04:28:07.410Z,101205.75
2022-12-03T04:31:28.734Z,101209.09
2022-12-03T04:34:50.692Z,101208.25
2022-12-03T04:37:54.589Z,101209.94
2022-12-03T04:41:06.420Z,101206.37
2022-12-03T04:44:30.570Z,101219.31
2022-12-03T04:47:39.860Z,101202.84
2022-12-03T04:50:43.304Z,101213.37
2022-12-03T04:53:46.414Z,101216.69
2022-12-03T04:56:52.240Z,101210.56
2022-12-03T04:59:58.255Z,101217.53
2022-12-03T05:03:01.169Z,101220.16
2022-12-03T05:06:04.324Z,101222.66
2022-12-03T05:09:07.117Z,101213.06
2022-12-03T05:12:09.820Z,101224.31
2022-12-03T05:15:12.566Z,101209.53
2022-12-03T05:18:15.483Z,101219.09
2022-12-03T05:21:18.299Z,101225.06
2022-12-03T05:24:21.128Z,101215.56
2022-12-03T05:27:24.458Z,101225.06
2022-12-03T05:30:27.357Z,101229.31
2022-12-03T05:33:30.350Z,101229.31
2022-12-03T05:36:33.123Z,101225.88
2022-12-03T05:39:36.148Z,101211.00
2022-12-03T05:42:54.576Z,101210.16
2022-12-03T05:45:57.304Z,101206.63
2022-12-03T05:49:00.295Z,101213.59
2022-12-03T05:52:03.197Z,101216.16
2022-12-03T05:55:07.345Z,101216.97
2022-12-03T05:58:10.212Z,101214.28
2022-12-03T06:01:12.994Z,101215.12
2022-12-03T06:04:15.699Z,101209.91
2022-12-03T06:07:18.751Z,101235.00
2022-12-03T06:10:25.443Z,101224.59
2022-12-03T06:13:28.193Z,101215.00
2022-12-03T06:16:31.079Z,101219.38
2022-12-03T06:19:34.174Z,101228.88
2022-12-03T06:22:36.965Z,101224.59
2022-12-03T06:25:39.731Z,101227.09
2022-12-03T06:28:48.633Z,101223.56
2022-12-03T06:31:51.910Z,101224.41
2022-12-03T06:34:55.099Z,101225.22
2022-12-03T06:37:58.210Z,101232.94
2022-12-03T06:41:01.151Z,101235.53
2022-12-03T06:44:04.039Z,101235.44
2022-12-03T06:47:06.809Z,101226.69
2022-12-03T06:50:09.889Z,101239.63
2022-12-03T06:53:12.842Z,101237.84
2022-12-03T06:56:20.058Z,101236.91
2022-12-03T06:59:25.045Z,101241.94
2022-12-03T07:02:28.325Z,101237.44
2022-12-03T07:05:31.417Z,101236.53
2022-12-03T07:08:34.639Z,101235.47
2022-12-03T07:11:40.796Z,101226.75
2022-12-03T07:14:45.446Z,101229.13
2022-12-03T07:17:50.272Z,101237.59
2022-12-03T07:20:53.114Z,101245.09
2022-12-03T07:23:56.016Z,101244.91
2022-12-03T07:26:59.804Z,101247.19
2022-12-03T07:30:02.815Z,101244.59
2022-12-03T07:33:05.783Z,101235.12
2022-12-03T07:36:09.298Z,101240.13
2022-12-03T07:39:12.171Z,101239.50
2022-12-03T07:42:15.093Z,101245.72
2022-12-03T07:45:17.987Z,101243.03
2022-12-03T07:48:20.963Z,101242.09
2022-12-03T07:51:28.804Z,101249.72
2022-12-03T07:54:34.778Z,101239.19
2022-12-03T07:57:37.817Z,101244.13
2022-12-03T08:00:41.222Z,101239.75
2022-12-03T08:03:44.043Z,101240.47
2022-12-03T08:06:46.869Z,101235.16
2022-12-03T08:09:50.367Z,101241.13
2022-12-03T08:12:54.047Z,101236.84
2022-12-03T08:16:01.417Z,101244.56
2022-12-03T08:19:08.355Z,101241.94
2022-12-03T08:22:15.463Z,101242.69
2022-12-03T08:25:26.907Z,101238.50
2022-12-03T08:28:30.784Z,101237.56
2022-12-03T08:31:34.198Z,101237.56
2022-12-03T08:34:44.383Z,101234.13
2022-12-03T08:37:47.221Z,101236.84
2022-12-03T08:40:52.184Z,101243.72
2022-12-03T08:43:55.190Z,101250.59
2022-12-03T08:47:10.171Z,101257.69
2022-12-03T08:50:40.562Z,101255.91
2022-12-03T08:53:55.347Z,101262.78
2022-12-03T08:57:02.411Z,101261.22
2022-12-03T09:00:20.945Z,101259.28
2022-12-03T09:03:24.707Z,101259.69
2022-12-03T09:06:27.552Z,101264.69
2022-12-03T09:09:30.902Z,101268.13
2022-12-03T09:12:33.654Z,101262.62
2022-12-03T09:15:36.444Z,101266.94
2022-12-03T09:18:39.902Z,101271.22
2022-12-03T09:21:42.832Z,101266.00
2022-12-03T09:24:45.693Z,101271.47
2022-12-03T09:27:48.653Z,101268.97
2022-12-03T09:30:51.476Z,101263.66
2022-12-03T09:33:54.500Z,101248.31
2022-12-03T09:36:57.271Z,101250.81
2022-12-03T09:40:00.174Z,101253.72
2022-12-03T09:43:03.013Z,101256.34
2022-12-03T09:46:06.160Z,101255.31
2022-12-03T09:49:15.733Z,101244.78
2022-12-03T09:52:26.670Z,101246.66
2022-12-03T09:55:31.044Z,101245.59
2022-12-03T09:58:35.053Z,101235.59
2022-12-03T10:01:41.166Z,101228.84
2022-12-03T10:04:44.042Z,101224.78
2022-12-03T10:07:47.953Z,101213.81
2022-12-03T10:10:53.095Z,101224.44
2022-12-03T10:13:56.916Z,101221.22
2022-12-03T10:16:59.970Z,101215.81
2022-12-03T10:20:02.975Z,101215.69
2022-12-03T10:23:06.129Z,101208.72
2022-12-03T10:26:08.894Z,101211.53
2022-12-03T10:29:20.857Z,101207.03
2022-12-03T10:32:29.225Z,101210.78
2022-12-03T10:35:41.530Z,101205.59
2022-12-03T10:38:44.795Z,101199.53
2022-12-03T10:41:47.967Z,101194.94
2022-12-03T10:45:07.710Z,101189.75
2022-12-03T10:48:19.836Z,101192.66
2022-12-03T10:51:22.752Z,101202.25
2022-12-03T10:54:26.518Z,101192.44
2022-12-03T10:57:32.771Z,101194.00
2022-12-03T11:00:36.029Z,101186.81
2022-12-03T11:03:38.976Z,101182.44
2022-12-03T11:06:41.881Z,101177.22
2022-12-03T11:09:46.607Z,101174.62
2022-12-03T11:13:27.695Z,101172.34
2022-12-03T11:16:39.623Z,101173.38
2022-12-03T11:19:45.577Z,101161.69
2022-12-03T11:22:49.326Z,101160.22
2022-12-03T11:25:52.339Z,101163.13
2022-12-03T11:28:55.905Z,101158.84
2022-12-03T11:31:58.819Z,101160.41
2022-12-03T11:35:16.694Z,101163.84
2022-12-03T11:38:38.199Z,101167.50
2022-12-03T11:41:41.023Z,101163.50
2022-12-03T11:44:44.009Z,101147.34
2022-12-03T11:48:00.451Z,101146.91
2022-12-03T11:51:03.715Z,101146.78
2022-12-03T11:54:06.697Z,101138.72
2022-12-03T11:57:36.737Z,101136.97
2022-12-03T12:00:39.678Z,101141.84
2022-12-03T12:03:44.421Z,101132.00
2022-12-03T12:06:53.152Z,101133.06
2022-12-03T12:09:56.476Z,101132.97
2022-12-03T12:12:59.509Z,101124.53
2022-12-03T12:16:05.650Z,101117.41
2022-12-03T12:19:28.723Z,101117.19
2022-12-03T12:22:32.169Z,101112.19
2022-12-03T12:25:37.901Z,101112.19
2022-12-03T12:28:41.277Z,101119.31
2022-12-03T12:31:44.782Z,101122.75
2022-12-03T12:34:51.464Z,101130.97
2022-12-03T12:38:03.257Z,101126.47
2022-12-03T12:41:08.324Z,101111.28
2022-12-03T12:44:13.439Z,101117.12
2022-12-03T12:47:16.326Z,101114.75
2022-12-03T12:50:20.047Z,101111.91
2022-12-03T12:53:27.497Z,101110.50
2022-12-03T12:56:31.826Z,101103.50
2022-12-03T12:59:34.974Z,101098.16
2022-12-03T13:02:42.726Z,101095.97
2022-12-03T13:05:48.144Z,101094.69
2022-12-03T13:08:51.341Z,101082.94
2022-12-03T13:11:57.545Z,101080.44
2022-12-03T13:15:01.210Z,101090.06
2022-12-03T13:18:34.859Z,101093.50
2022-12-03T13:21:44.815Z,101089.34
2022-12-03T13:24:52.410Z,101087.69
2022-12-03T13:27:55.270Z,101090.28
2022-12-03T13:31:10.247Z,101091.22
2022-12-03T13:34:24.847Z,101091.34
2022-12-03T13:37:28.597Z,101089.56
2022-12-03T13:40:35.359Z,101087.78
2022-12-03T13:43:44.606Z,101092.06
2022-12-03T13:46:47.847Z,101088.50
2022-12-03T13:49:57.056Z,101089.22
2022-12-03T13:53:02.564Z,101084.00
2022-12-03T13:56:27.500Z,101079.50
2022-12-03T13:59:33.525Z,101086.50
2022-12-03T14:02:36.927Z,101078.66
2022-12-03T14:05:40.233Z,101079.50
2022-12-03T14:08:43.177Z,101079.38
2022-12-03T14:12:04.548Z,101085.56
2022-12-03T14:15:08.996Z,101086.38
2022-12-03T14:18:14.826Z,101082.72
2022-12-03T14:21:17.745Z,101081.75
2022-12-03T14:24:20.586Z,101086.88
2022-12-03T14:27:25.052Z,101087.81
2022-12-03T14:30:28.965Z,101087.94
2022-12-03T14:33:32.617Z,101095.88
2022-12-03T14:36:35.506Z,101089.00
2022-12-03T14:39:38.340Z,101096.94
2022-12-03T14:42:41.261Z,101087.44
2022-12-03T14:45:44.593Z,101086.72
2022-12-03T14:48:48.299Z,101086.84
2022-12-03T14:51:51.150Z,101091.34
2022-12-03T14:54:54.116Z,101077.47
2022-12-03T14:57:56.874Z,101089.69
2022-12-03T15:00:59.860Z,101088.03
2022-12-03T15:04:02.804Z,101094.06
2022-12-03T15:07:06.171Z,101096.81
2022-12-03T15:10:09.498Z,101091.69
2022-12-03T15:13:12.479Z,101095.97
2022-12-03T15:16:15.793Z,101090.03
2022-12-03T15:19:18.763Z,101106.53
2022-12-03T15:22:22.327Z,101104.03
2022-12-03T15:25:26.297Z,101107.56
2022-12-03T15:28:31.970Z,101111.13
2022-12-03T15:31:34.922Z,101117.28
2022-12-03T15:34:38.087Z,101122.38
2022-12-03T15:37:41.086Z,101117.28
2022-12-03T15:40:44.186Z,101123.44
2022-12-03T15:43:51.309Z,101127.00
2022-12-03T15:46:54.558Z,101127.12
2022-12-03T15:49:57.497Z,101132.34
2022-12-03T15:53:06.864Z,101125.56
2022-12-03T15:56:12.534Z,101119.72
2022-12-03T15:59:18.027Z,101115.47
2022-12-03T16:02:21.145Z,101117.12
2022-12-03T16:05:25.867Z,101125.91
2022-12-03T16:08:28.941Z,101124.25
2022-12-03T16:11:32.441Z,101116.50
2022-12-03T16:14:35.698Z,101112.34
2022-12-03T16:17:38.660Z,101116.84
2022-12-03T16:20:41.549Z,101109.97
2022-12-03T16:23:44.952Z,101105.81
2022-12-03T16:26:47.875Z,101092.75
2022-12-03T16:29:51.080Z,101102.13
2022-12-03T16:32:57.430Z,101094.41
2022-12-03T16:36:01.451Z,101105.47
2022-12-03T16:39:05.453Z,101102.84
2022-12-03T16:42:14.234Z,101099.41
2022-12-03T16:45:33.710Z,101097.63
2022-12-03T16:48:37.103Z,101104.41
2022-12-03T16:51:43.859Z,101102.53
2022-12-03T16:54:47.196Z,101102.28
2022-12-03T16:57:50.136Z,101105.75
2022-12-03T17:00:56.514Z,101107.41
2022-12-03T17:03:59.399Z,101110.00
2022-12-03T17:07:02.353Z,101115.13
2022-12-03T17:10:06.006Z,101103.72
2022-12-03T17:13:10.401Z,101102.06
2022-12-03T17:16:13.905Z,101101.47
2022-12-03T17:19:17.504Z,101094.56
2022-12-03T17:22:20.392Z,101097.19
2022-12-03T17:25:23.578Z,101097.28
2022-12-03T17:28:26.626Z,101108.56
2022-12-03T17:31:29.779Z,101105.97
2022-12-03T17:34:32.644Z,101094.69
2022-12-03T17:37:36.322Z,101098.13
2022-12-03T17:40:39.300Z,101107.75
2022-12-03T17:43:42.386Z,101108.69
2022-12-03T17:46:45.382Z,101103.56
2022-12-03T17:49:48.600Z,101109.75
2022-12-03T17:52:51.528Z,101111.53
2022-12-03T17:55:54.703Z,101109.75
2022-12-03T17:58:58.705Z,101109.84
2022-12-03T18:02:07.022Z,101115.91
2022-12-03T18:05:10.233Z,101105.56
2022-12-03T18:08:13.267Z,101103.19
2022-12-03T18:11:16.601Z,101109.34
2022-12-03T18:14:19.427Z,101112.81
2022-12-03T18:17:22.242Z,101105.91
2022-12-03T18:20:25.415Z,101108.63
2022-12-03T18:23:29.026Z,101100.09
2022-12-03T18:26:32.047Z,101106.12
2022-12-03T18:29:35.144Z,101109.69
2022-12-03T18:32:38.276Z,101112.31
2022-12-03T18:35:42.093Z,101108.84
2022-12-03T18:38:45.415Z,101103.75
2022-12-03T18:41:49.867Z,101102.81
2022-12-03T18:44:55.391Z,101103.75
2022-12-03T18:47:59.328Z,101101.16
2022-12-03T18:51:17.633Z,101107.19
2022-12-03T18:54:27.749Z,101095.94
2022-12-03T18:57:36.332Z,101100.09
2022-12-03T19:00:42.929Z,101105.53
2022-12-03T19:03:51.705Z,101101.97
2022-12-03T19:06:56.124Z,101106.25
2022-12-03T19:09:59.508Z,101111.47
2022-12-03T19:13:03.974Z,101102.81
2022-12-03T19:16:08.421Z,101102.69
2022-12-03T19:19:11.874Z,101110.53
2022-12-03T19:22:15.138Z,101118.47
2022-12-03T19:25:18.265Z,101122.75
2022-12-03T19:28:21.466Z,101127.12
2022-12-03T19:31:24.678Z,101127.97
2022-12-03T19:34:28.634Z,101127.03
2022-12-03T19:37:34.067Z,101127.25
2022-12-03T19:40:37.324Z,101126.41
2022-12-03T19:43:40.872Z,101122.84
2022-12-03T19:46:44.189Z,101129.75
2022-12-03T19:49:47.346Z,101130.69
2022-12-03T19:52:53.623Z,101131.50
2022-12-03T19:56:15.001Z,101139.22
2022-12-03T19:59:18.166Z,101139.84
2022-12-03T20:02:21.065Z,101138.94
2022-12-03T20:05:31.847Z,101140.06
2022-12-03T20:08:39.412Z,101124.41
2022-12-03T20:11:45.134Z,101125.94
2022-12-03T20:14:51.920Z,101129.19
2022-12-03T20:17:55.103Z,101140.12
2022-12-03T20:20:59.232Z,101133.84
2022-12-03T20:24:02.985Z,101131.84
2022-12-03T20:27:06.072Z,101132.34
2022-12-03T20:30:09.459Z,101133.53
2022-12-03T20:33:13.856Z,101124.75
2022-12-03T20:36:24.129Z,101123.59
2022-12-03T20:39:27.348Z,101125.03
2022-12-03T20:42:31.630Z,101119.91
2022-12-03T20:45:34.701Z,101115.41
2022-12-03T20:48:38.507Z,101113.38
2022-12-03T20:51:42.827Z,101127.78
2022-12-03T20:54:46.296Z,101122.44
2022-12-03T20:57:50.296Z,101113.88
2022-12-03T21:00:53.212Z,101111.84
2022-12-03T21:03:57.927Z,101118.87
2022-12-03T21:07:00.865Z,101117.94
2022-12-03T21:10:04.059Z,101113.62
2022-12-03T21:13:07.112Z,101112.72
2022-12-03T21:16:13.100Z,101124.38
2022-12-03T21:19:18.175Z,101117.47
2022-12-03T21:22:21.043Z,101116.66
2022-12-03T21:25:26.720Z,101117.25
2022-12-03T21:28:29.991Z,101124.25
2022-12-03T21:31:33.087Z,101125.09
2022-12-03T21:34:36.687Z,101119.88
2022-12-03T21:37:39.745Z,101121.75
2022-12-03T21:40:42.858Z,101121.75
2022-12-03T21:43:45.973Z,101123.44
2022-12-03T21:47:11.701Z,101129.50
2022-12-03T21:50:11.996Z,101127.69
2022-12-03T21:53:14.831Z,101128.41
2022-12-03T21:56:27.324Z,101114.63
2022-12-03T21:59:33.100Z,101109.66
2022-12-03T22:02:39.311Z,101111.31
2022-12-03T22:05:43.764Z,101120.69
2022-12-03T22:08:47.175Z,101120.59
2022-12-03T22:11:50.140Z,101121.75
2022-12-03T22:14:53.983Z,101117.38
2022-12-03T22:17:56.868Z,101112.16
2022-12-03T22:21:07.234Z,101108.69
2022-12-03T22:24:10.134Z,101110.47
2022-12-03T22:27:17.151Z,101101.81
2022-12-03T22:30:20.196Z,101100.84
2022-12-03T22:33:23.716Z,101101.69
2022-12-03T22:36:27.604Z,101095.63
2022-12-03T22:39:30.540Z,101091.34
2022-12-03T22:42:33.415Z,101087.91
2022-12-03T22:45:36.303Z,101093.97
2022-12-03T22:48:40.404Z,101087.19
2022-12-03T22:51:46.457Z,101092.53
2022-12-03T22:54:55.666Z,101080.41
2022-12-03T22:57:58.496Z,101085.66
2022-12-03T23:01:03.068Z,101084.69
2022-12-03T23:04:08.281Z,101089.91
2022-12-03T23:07:11.255Z,101083.12
2022-12-03T23:10:14.704Z,101071.94
2022-12-03T23:13:18.635Z,101080.75
2022-12-03T23:16:29.312Z,101075.50
2022-12-03T23:19:32.300Z,101072.06
2022-12-03T23:22:35.166Z,101071.22
2022-12-03T23:25:41.232Z,101068.75
2022-12-03T23:28:45.742Z,101064.47
2022-12-03T23:31:48.706Z,101059.34
2022-12-03T23:34:54.959Z,101052.59
2022-12-03T23:37:57.781Z,101052.81
2022-12-03T23:41:18.100Z,101052.94
2022-12-03T23:44:20.951Z,101052.34
2022-12-03T23:47:24.250Z,101045.34
2022-12-03T23:50:27.965Z,101047.81
2022-12-03T23:53:30.953Z,101048.53
2022-12-03T23:56:33.943Z,101044.25
2022-12-03T23:59:37.007Z,101025.25
